sensor_id;sensor_type;location;lat;lon;timestamp;pressure;altitude;pressure_sealevel;temperature;humidity
72558;BME280;60583;50.094;8.748;2022-11-04T00:01:30;99341.66;;;11.42;97.61
72558;BME280;60583;50.094;8.748;2022-11-04T00:03:56;99354.25;;;11.35;97.95
72558;BME280;60583;50.094;8.748;2022-11-04T00:06:22;99351.13;;;11.38;98.03
72558;BME280;60583;50.094;8.748;2022-11-04T00:08:52;99356.25;;;11.40;97.67
72558;BME280;60583;50.094;8.748;2022-11-04T00:11:19;99365.75;;;11.36;97.96
72558;BME280;60583;50.094;8.748;2022-11-04T00:14:04;99376.34;;;11.42;98.23
72558;BME280;60583;50.094;8.748;2022-11-04T00:16:30;99384.69;;;11.34;97.70
72558;BME280;60583;50.094;8.748;2022-11-04T00:19:14;99396.50;;;11.38;98.21
72558;BME280;60583;50.094;8.748;2022-11-04T00:21:39;99399.19;;;11.38;97.51
72558;BME280;60583;50.094;8.748;2022-11-04T00:24:24;99403.50;;;11.39;97.42
72558;BME280;60583;50.094;8.748;2022-11-04T00:27:12;99397.47;;;11.44;97.04
72558;BME280;60583;50.094;8.748;2022-11-04T00:29:56;99388.38;;;11.33;98.43
72558;BME280;60583;50.094;8.748;2022-11-04T00:32:22;99395.25;;;11.41;97.82
72558;BME280;60583;50.094;8.748;2022-11-04T00:35:06;99386.28;;;11.35;97.16
72558;BME280;60583;50.094;8.748;2022-11-04T00:37:36;99385.16;;;11.43;97.48
72558;BME280;60583;50.094;8.748;2022-11-04T00:40:02;99381.34;;;11.50;97.30
72558;BME280;60583;50.094;8.748;2022-11-04T00:42:28;99382.25;;;11.44;97.19
72558;BME280;60583;50.094;8.748;2022-11-04T00:44:53;99373.56;;;11.37;97.21
72558;BME280;60583;50.094;8.748;2022-11-04T00:47:18;99367.25;;;11.32;97.17
72558;BME280;60583;50.094;8.748;2022-11-04T00:49:44;99372.81;;;11.30;97.69
72558;BME280;60583;50.094;8.748;2022-11-04T00:52:09;99368.66;;;11.34;97.51
72558;BME280;60583;50.094;8.748;2022-11-04T00:54:34;99373.56;;;11.37;96.87
72558;BME280;60583;50.094;8.748;2022-11-04T00:57:00;99375.84;;;11.34;96.77
72558;BME280;60583;50.094;8.748;2022-11-04T00:59:25;99369.13;;;11.31;96.50
72558;BME280;60583;50.094;8.748;2022-11-04T01:01:51;99367.38;;;11.37;96.28
72558;BME280;60583;50.094;8.748;2022-11-04T01:04:16;99379.22;;;11.41;96.00
72558;BME280;60583;50.094;8.748;2022-11-04T01:06:41;99383.63;;;11.35;96.18
72558;BME280;60583;50.094;8.748;2022-11-04T01:09:09;99376.88;;;11.33;95.62
72558;BME280;60583;50.094;8.748;2022-11-04T01:11:36;99383.03;;;11.33;95.46
72558;BME280;60583;50.094;8.748;2022-11-04T01:14:02;99384.09;;;11.32;96.36
72558;BME280;60583;50.094;8.748;2022-11-04T01:16:27;99390.84;;;11.35;96.11
72558;BME280;60583;50.094;8.748;2022-11-04T01:18:53;99390.84;;;11.35;95.56
72558;BME280;60583;50.094;8.748;2022-11-04T01:21:18;99383.03;;;11.33;95.06
72558;BME280;60583;50.094;8.748;2022-11-04T01:23:44;99387.78;;;11.31;95.03
72558;BME280;60583;50.094;8.748;2022-11-04T01:26:16;99385.94;;;11.32;95.01
72558;BME280;60583;50.094;8.748;2022-11-04T01:28:42;99403.69;;;11.26;95.44
72558;BME280;60583;50.094;8.748;2022-11-04T01:31:09;99401.72;;;11.33;94.15
72558;BME280;60583;50.094;8.748;2022-11-04T01:33:35;99401.59;;;11.28;95.19
72558;BME280;60583;50.094;8.748;2022-11-04T01:36:02;99420.84;;;11.30;94.03
72558;BME280;60583;50.094;8.748;2022-11-04T01:38:27;99427.94;;;11.25;95.02
72558;BME280;60583;50.094;8.748;2022-11-04T01:40:53;99428.84;;;11.30;94.79
72558;BME280;60583;50.094;8.748;2022-11-04T01:43:20;99415.50;;;11.30;94.32
72558;BME280;60583;50.094;8.748;2022-11-04T01:45:53;99421.22;;;11.34;94.08
72558;BME280;60583;50.094;8.748;2022-11-04T01:48:25;99419.25;;;11.29;94.30
72558;BME280;60583;50.094;8.748;2022-11-04T01:50:52;99419.81;;;11.31;94.29
72558;BME280;60583;50.094;8.748;2022-11-04T01:53:23;99427.44;;;11.28;94.20
72558;BME280;60583;50.094;8.748;2022-11-04T01:55:52;99410.16;;;11.19;94.33
72558;BME280;60583;50.094;8.748;2022-11-04T01:58:22;99411.78;;;11.20;94.49
72558;BME280;60583;50.094;8.748;2022-11-04T02:00:49;99430.91;;;11.17;94.07
72558;BME280;60583;50.094;8.748;2022-11-04T02:03:18;99433.78;;;11.15;94.38
72558;BME280;60583;50.094;8.748;2022-11-04T02:05:45;99431.25;;;11.20;94.40
72558;BME280;60583;50.094;8.748;2022-11-04T02:08:13;99436.69;;;11.14;94.08
72558;BME280;60583;50.094;8.748;2022-11-04T02:10:40;99441.19;;;11.13;94.40
72558;BME280;60583;50.094;8.748;2022-11-04T02:13:08;99422.91;;;11.17;94.05
72558;BME280;60583;50.094;8.748;2022-11-04T02:26:40;99432.94;;;11.03;94.24
72558;BME280;60583;50.094;8.748;2022-11-04T02:35:04;99431.53;;;11.01;94.47
72558;BME280;60583;50.094;8.748;2022-11-04T02:37:44;99435.44;;;10.98;94.52
72558;BME280;60583;50.094;8.748;2022-11-04T02:49:11;99430.88;;;10.87;94.06
72558;BME280;60583;50.094;8.748;2022-11-04T02:51:48;99436.38;;;10.74;93.67
72558;BME280;60583;50.094;8.748;2022-11-04T02:54:24;99444.53;;;10.79;94.48
72558;BME280;60583;50.094;8.748;2022-11-04T02:56:55;99440.88;;;10.73;94.11
72558;BME280;60583;50.094;8.748;2022-11-04T02:59:25;99460.13;;;10.75;93.69
72558;BME280;60583;50.094;8.748;2022-11-04T03:01:54;99461.41;;;10.73;93.77
72558;BME280;60583;50.094;8.748;2022-11-04T03:04:25;99464.28;;;10.71;93.01
72558;BME280;60583;50.094;8.748;2022-11-04T03:06:53;99461.25;;;10.68;92.11
72558;BME280;60583;50.094;8.748;2022-11-04T03:09:20;99466.97;;;10.71;92.25
72558;BME280;60583;50.094;8.748;2022-11-04T03:11:49;99461.53;;;10.60;90.70
72558;BME280;60583;50.094;8.748;2022-11-04T03:14:24;99464.00;;;10.61;91.33
72558;BME280;60583;50.094;8.748;2022-11-04T03:16:55;99461.53;;;10.60;90.97
72558;BME280;60583;50.094;8.748;2022-11-04T03:19:31;99451.94;;;10.59;90.05
72558;BME280;60583;50.094;8.748;2022-11-04T03:22:09;99457.31;;;10.52;89.75
72558;BME280;60583;50.094;8.748;2022-11-04T03:24:35;99464.28;;;10.53;89.66
72558;BME280;60583;50.094;8.748;2022-11-04T03:29:45;99469.47;;;10.48;89.16
72558;BME280;60583;50.094;8.748;2022-11-04T03:32:22;99479.13;;;10.43;88.72
72558;BME280;60583;50.094;8.748;2022-11-04T03:34:49;99503.56;;;10.40;89.49
72558;BME280;60583;50.094;8.748;2022-11-04T03:37:14;99521.84;;;10.36;88.97
72558;BME280;60583;50.094;8.748;2022-11-04T03:39:40;99516.28;;;10.38;88.29
72558;BME280;60583;50.094;8.748;2022-11-04T03:42:08;99486.38;;;10.36;87.87
72558;BME280;60583;50.094;8.748;2022-11-04T03:44:52;99497.88;;;10.36;88.27
72558;BME280;60583;50.094;8.748;2022-11-04T03:47:20;99512.88;;;10.31;88.47
72558;BME280;60583;50.094;8.748;2022-11-04T03:49:47;99512.28;;;10.29;88.28
72558;BME280;60583;50.094;8.748;2022-11-04T03:52:14;99518.44;;;10.29;87.94
72558;BME280;60583;50.094;8.748;2022-11-04T03:54:41;99532.84;;;10.21;88.18
72558;BME280;60583;50.094;8.748;2022-11-04T03:57:33;99530.78;;;10.23;87.82
72558;BME280;60583;50.094;8.748;2022-11-04T04:03:05;99521.59;;;10.19;88.50
72558;BME280;60583;50.094;8.748;2022-11-04T04:08:24;99532.44;;;10.18;88.26
72558;BME280;60583;50.094;8.748;2022-11-04T04:13:44;99542.53;;;10.09;89.81
72558;BME280;60583;50.094;8.748;2022-11-04T04:16:28;99538.47;;;10.07;89.40
72558;BME280;60583;50.094;8.748;2022-11-04T04:19:06;99539.88;;;10.09;89.67
72558;BME280;60583;50.094;8.748;2022-11-04T04:21:47;99531.72;;;10.04;89.81
72558;BME280;60583;50.094;8.748;2022-11-04T04:24:16;99516.53;;;10.05;89.38
72558;BME280;60583;50.094;8.748;2022-11-04T04:27:01;99520.97;;;10.17;89.10
72558;BME280;60583;50.094;8.748;2022-11-04T04:29:46;99526.31;;;10.17;88.62
72558;BME280;60583;50.094;8.748;2022-11-04T04:32:13;99532.91;;;10.08;88.88
72558;BME280;60583;50.094;8.748;2022-11-04T04:34:39;99540.31;;;10.06;89.53
72558;BME280;60583;50.094;8.748;2022-11-04T04:37:10;99544.81;;;10.06;89.29
72558;BME280;60583;50.094;8.748;2022-11-04T04:39:40;99539.72;;;10.04;89.49
72558;BME280;60583;50.094;8.748;2022-11-04T04:42:30;99537.03;;;10.04;88.77
72558;BME280;60583;50.094;8.748;2022-11-04T04:45:20;99533.00;;;9.95;88.86
72558;BME280;60583;50.094;8.748;2022-11-04T04:47:46;99545.28;;;9.96;88.91
72558;BME280;60583;50.094;8.748;2022-11-04T04:50:15;99548.97;;;9.95;88.95
72558;BME280;60583;50.094;8.748;2022-11-04T04:52:43;99551.63;;;9.95;89.19
72558;BME280;60583;50.094;8.748;2022-11-04T04:55:10;99546.13;;;9.90;89.25
72558;BME280;60583;50.094;8.748;2022-11-04T04:57:35;99534.06;;;9.88;88.98
72558;BME280;60583;50.094;8.748;2022-11-04T05:00:01;99530.16;;;9.90;89.14
72558;BME280;60583;50.094;8.748;2022-11-04T05:02:26;99528.16;;;9.86;89.52
72558;BME280;60583;50.094;8.748;2022-11-04T05:04:51;99526.50;;;9.85;89.48
72558;BME280;60583;50.094;8.748;2022-11-04T05:07:17;99540.63;;;9.92;89.32
72558;BME280;60583;50.094;8.748;2022-11-04T05:09:42;99534.88;;;9.88;89.22
72558;BME280;60583;50.094;8.748;2022-11-04T05:12:08;99535.16;;;9.80;89.46
72558;BME280;60583;50.094;8.748;2022-11-04T05:14:34;99528.22;;;9.73;89.73
72558;BME280;60583;50.094;8.748;2022-11-04T05:17:00;99529.03;;;9.73;90.17
72558;BME280;60583;50.094;8.748;2022-11-04T05:19:25;99531.47;;;9.75;89.37
72558;BME280;60583;50.094;8.748;2022-11-04T05:21:50;99520.03;;;9.74;89.34
72558;BME280;60583;50.094;8.748;2022-11-04T05:24:16;99521.88;;;9.74;89.34
72558;BME280;60583;50.094;8.748;2022-11-04T05:26:41;99532.47;;;9.80;89.25
72558;BME280;60583;50.094;8.748;2022-11-04T05:29:08;99526.97;;;9.75;89.60
72558;BME280;60583;50.094;8.748;2022-11-04T05:31:33;99530.06;;;9.72;89.38
72558;BME280;60583;50.094;8.748;2022-11-04T05:33:59;99545.09;;;9.60;89.92
72558;BME280;60583;50.094;8.748;2022-11-04T05:36:24;99545.13;;;9.53;90.40
72558;BME280;60583;50.094;8.748;2022-11-04T05:38:53;99547.75;;;9.60;90.06
72558;BME280;60583;50.094;8.748;2022-11-04T05:41:20;99535.66;;;9.64;89.93
72558;BME280;60583;50.094;8.748;2022-11-04T05:43:56;99541.88;;;9.51;90.48
72558;BME280;60583;50.094;8.748;2022-11-04T05:46:22;99531.94;;;9.34;91.20
72558;BME280;60583;50.094;8.748;2022-11-04T05:48:48;99530.88;;;9.35;91.58
72558;BME280;60583;50.094;8.748;2022-11-04T05:51:25;99533.94;;;9.38;91.21
72558;BME280;60583;50.094;8.748;2022-11-04T05:53:50;99541.53;;;9.35;91.48
72558;BME280;60583;50.094;8.748;2022-11-04T05:56:16;99544.59;;;9.38;91.68
72558;BME280;60583;50.094;8.748;2022-11-04T05:58:41;99538.66;;;9.36;91.79
72558;BME280;60583;50.094;8.748;2022-11-04T06:03:53;99532.47;;;9.42;91.50
72558;BME280;60583;50.094;8.748;2022-11-04T06:06:19;99529.03;;;9.35;91.57
72558;BME280;60583;50.094;8.748;2022-11-04T06:08:45;99528.03;;;9.30;92.31
72558;BME280;60583;50.094;8.748;2022-11-04T06:11:11;99521.66;;;9.37;91.61
72558;BME280;60583;50.094;8.748;2022-11-04T06:13:36;99524.72;;;9.41;91.59
72558;BME280;60583;50.094;8.748;2022-11-04T06:16:02;99526.97;;;9.44;91.59
72558;BME280;60583;50.094;8.748;2022-11-04T06:18:27;99536.75;;;9.50;91.14
72558;BME280;60583;50.094;8.748;2022-11-04T06:23:31;99521.81;;;9.49;91.20
72558;BME280;60583;50.094;8.748;2022-11-04T06:25:56;99521.81;;;9.49;90.61
72558;BME280;60583;50.094;8.748;2022-11-04T06:28:22;99523.63;;;9.55;90.53
72558;BME280;60583;50.094;8.748;2022-11-04T06:30:47;99530.78;;;9.54;91.16
72558;BME280;60583;50.094;8.748;2022-11-04T06:33:12;99539.16;;;9.58;90.66
72558;BME280;60583;50.094;8.748;2022-11-04T06:35:37;99547.16;;;9.58;90.75
72558;BME280;60583;50.094;8.748;2022-11-04T06:38:03;99545.97;;;9.54;90.80
72558;BME280;60583;50.094;8.748;2022-11-04T06:40:28;99552.06;;;9.54;90.94
72558;BME280;60583;50.094;8.748;2022-11-04T06:42:55;99564.41;;;9.49;90.98
72558;BME280;60583;50.094;8.748;2022-11-04T06:45:20;99569.28;;;9.52;90.79
72558;BME280;60583;50.094;8.748;2022-11-04T06:47:45;99573.59;;;9.53;90.43
72558;BME280;60583;50.094;8.748;2022-11-04T06:50:11;99573.16;;;9.56;90.47
72558;BME280;60583;50.094;8.748;2022-11-04T06:52:36;99570.50;;;9.56;90.61
72558;BME280;60583;50.094;8.748;2022-11-04T06:55:02;99573.72;;;9.64;90.51
72558;BME280;60583;50.094;8.748;2022-11-04T06:57:27;99577.63;;;9.69;89.88
72558;BME280;60583;50.094;8.748;2022-11-04T06:59:53;99582.13;;;9.68;90.25
72558;BME280;60583;50.094;8.748;2022-11-04T07:02:18;99585.78;;;9.67;89.73
72558;BME280;60583;50.094;8.748;2022-11-04T07:04:43;99576.59;;;9.63;89.99
72558;BME280;60583;50.094;8.748;2022-11-04T07:07:09;99587.84;;;9.65;89.60
72558;BME280;60583;50.094;8.748;2022-11-04T07:09:34;99590.16;;;9.61;89.85
72558;BME280;60583;50.094;8.748;2022-11-04T07:11:59;99588.09;;;9.57;90.45
72558;BME280;60583;50.094;8.748;2022-11-04T07:14:25;99581.97;;;9.56;90.32
72558;BME280;60583;50.094;8.748;2022-11-04T07:16:51;99590.16;;;9.55;90.16
72558;BME280;60583;50.094;8.748;2022-11-04T07:19:16;99600.16;;;9.59;90.55
72558;BME280;60583;50.094;8.748;2022-11-04T07:21:42;99597.06;;;9.62;90.13
72558;BME280;60583;50.094;8.748;2022-11-04T07:24:07;99597.44;;;9.73;89.63
72558;BME280;60583;50.094;8.748;2022-11-04T07:26:32;99595.56;;;9.80;89.29
72558;BME280;60583;50.094;8.748;2022-11-04T07:28:58;99597.78;;;9.89;89.12
72558;BME280;60583;50.094;8.748;2022-11-04T07:31:25;99596.31;;;9.93;88.81
72558;BME280;60583;50.094;8.748;2022-11-04T07:33:52;99605.13;;;9.94;89.02
72558;BME280;60583;50.094;8.748;2022-11-04T07:36:18;99609.97;;;10.03;88.35
72558;BME280;60583;50.094;8.748;2022-11-04T07:38:44;99605.66;;;10.09;88.06
72558;BME280;60583;50.094;8.748;2022-11-04T07:41:10;99604.59;;;10.16;86.79
72558;BME280;60583;50.094;8.748;2022-11-04T07:43:36;99617.53;;;10.13;86.91
72558;BME280;60583;50.094;8.748;2022-11-04T07:46:04;99608.28;;;10.15;87.60
72558;BME280;60583;50.094;8.748;2022-11-04T07:48:30;99610.59;;;10.12;87.09
72558;BME280;60583;50.094;8.748;2022-11-04T07:50:57;99613.25;;;10.12;87.59
72558;BME280;60583;50.094;8.748;2022-11-04T07:53:24;99626.13;;;10.08;87.13
72558;BME280;60583;50.094;8.748;2022-11-04T07:55:49;99628.00;;;10.14;87.55
72558;BME280;60583;50.094;8.748;2022-11-04T07:58:17;99629.00;;;10.13;87.09
72558;BME280;60583;50.094;8.748;2022-11-04T08:00:42;99627.50;;;10.24;87.06
72558;BME280;60583;50.094;8.748;2022-11-04T08:03:07;99618.09;;;10.21;86.93
72558;BME280;60583;50.094;8.748;2022-11-04T08:05:34;99622.53;;;10.34;86.36
72558;BME280;60583;50.094;8.748;2022-11-04T08:07:59;99624.38;;;10.34;86.71
72558;BME280;60583;50.094;8.748;2022-11-04T08:10:24;99615.94;;;10.37;86.55
72558;BME280;60583;50.094;8.748;2022-11-04T08:12:50;99628.22;;;10.38;86.33
72558;BME280;60583;50.094;8.748;2022-11-04T08:15:16;99627.97;;;10.46;86.16
72558;BME280;60583;50.094;8.748;2022-11-04T08:17:41;99627.69;;;10.54;87.14
72558;BME280;60583;50.094;8.748;2022-11-04T08:20:07;99635.09;;;10.52;86.48
72558;BME280;60583;50.094;8.748;2022-11-04T08:22:34;99616.72;;;10.44;85.16
72558;BME280;60583;50.094;8.748;2022-11-04T08:24:59;99628.94;;;10.51;86.27
72558;BME280;60583;50.094;8.748;2022-11-04T08:27:24;99613.38;;;10.48;86.34
72558;BME280;60583;50.094;8.748;2022-11-04T08:29:50;99618.66;;;10.55;85.03
72558;BME280;60583;50.094;8.748;2022-11-04T08:32:16;99623.13;;;10.61;85.67
72558;BME280;60583;50.094;8.748;2022-11-04T08:34:41;99617.53;;;10.69;85.25
72558;BME280;60583;50.094;8.748;2022-11-04T08:37:06;99613.59;;;10.71;83.72
72558;BME280;60583;50.094;8.748;2022-11-04T08:39:32;99617.09;;;10.72;83.98
72558;BME280;60583;50.094;8.748;2022-11-04T08:41:57;99609.09;;;10.72;84.21
72558;BME280;60583;50.094;8.748;2022-11-04T08:44:23;99613.53;;;10.78;83.93
72558;BME280;60583;50.094;8.748;2022-11-04T08:46:49;99614.59;;;10.77;84.46
72558;BME280;60583;50.094;8.748;2022-11-04T08:49:14;99612.34;;;10.74;84.08
72558;BME280;60583;50.094;8.748;2022-11-04T08:51:43;99608.03;;;10.73;84.18
72558;BME280;60583;50.094;8.748;2022-11-04T08:54:09;99612.78;;;10.71;84.12
72558;BME280;60583;50.094;8.748;2022-11-04T08:56:37;99609.72;;;10.67;84.91
72558;BME280;60583;50.094;8.748;2022-11-04T08:59:04;99608.63;;;10.75;84.04
72558;BME280;60583;50.094;8.748;2022-11-04T09:01:32;99615.84;;;10.74;84.12
72558;BME280;60583;50.094;8.748;2022-11-04T09:03:58;99609.47;;;10.75;83.97
72558;BME280;60583;50.094;8.748;2022-11-04T09:06:26;99607.19;;;10.79;83.96
72558;BME280;60583;50.094;8.748;2022-11-04T09:08:53;99613.69;;;10.83;84.91
72558;BME280;60583;50.094;8.748;2022-11-04T09:11:26;99609.84;;;10.79;84.53
72558;BME280;60583;50.094;8.748;2022-11-04T09:13:52;99630.75;;;10.82;84.79
72558;BME280;60583;50.094;8.748;2022-11-04T09:16:17;99630.28;;;10.85;83.70
72558;BME280;60583;50.094;8.748;2022-11-04T09:18:43;99626.91;;;10.96;83.97
72558;BME280;60583;50.094;8.748;2022-11-04T09:21:09;99631.22;;;10.97;84.25
72558;BME280;60583;50.094;8.748;2022-11-04T09:23:35;99631.38;;;11.02;84.95
72558;BME280;60583;50.094;8.748;2022-11-04T09:26:09;99634.66;;;11.04;84.01
72558;BME280;60583;50.094;8.748;2022-11-04T09:28:35;99638.56;;;11.02;84.05
72558;BME280;60583;50.094;8.748;2022-11-04T09:31:05;99630.50;;;11.08;83.88
72558;BME280;60583;50.094;8.748;2022-11-04T09:33:30;99628.50;;;11.04;83.42
72558;BME280;60583;50.094;8.748;2022-11-04T09:35:57;99629.63;;;11.14;83.95
72558;BME280;60583;50.094;8.748;2022-11-04T09:38:26;99623.91;;;11.29;83.60
72558;BME280;60583;50.094;8.748;2022-11-04T09:40:51;99629.41;;;11.52;82.18
72558;BME280;60583;50.094;8.748;2022-11-04T09:45:53;99631.28;;;11.88;80.69
72558;BME280;60583;50.094;8.748;2022-11-04T09:50:56;99641.28;;;12.34;78.71
72558;BME280;60583;50.094;8.748;2022-11-04T09:53:37;99645.28;;;12.43;77.81
72558;BME280;60583;50.094;8.748;2022-11-04T09:56:12;99649.63;;;12.67;76.85
72558;BME280;60583;50.094;8.748;2022-11-04T09:58:39;99654.28;;;12.71;76.33
72558;BME280;60583;50.094;8.748;2022-11-04T10:06:34;99651.50;;;12.25;78.50
72558;BME280;60583;50.094;8.748;2022-11-04T10:20:02;99648.38;;;12.69;74.46
72558;BME280;60583;50.094;8.748;2022-11-04T10:22:57;99643.50;;;12.78;74.62
72558;BME280;60583;50.094;8.748;2022-11-04T10:28:04;99634.91;;;12.88;73.64
72558;BME280;60583;50.094;8.748;2022-11-04T10:30:33;99638.41;;;12.88;72.58
72558;BME280;60583;50.094;8.748;2022-11-04T10:36:05;99631.09;;;13.18;70.55
72558;BME280;60583;50.094;8.748;2022-11-04T10:38:47;99632.31;;;13.04;70.92
72558;BME280;60583;50.094;8.748;2022-11-04T10:41:29;99621.44;;;13.29;70.22
72558;BME280;60583;50.094;8.748;2022-11-04T10:44:07;99606.16;;;14.37;66.79
72558;BME280;60583;50.094;8.748;2022-11-04T10:49:36;99609.56;;;13.76;67.80
72558;BME280;60583;50.094;8.748;2022-11-04T10:52:02;99603.09;;;13.89;67.09
72558;BME280;60583;50.094;8.748;2022-11-04T10:54:36;99594.06;;;14.23;65.91
72558;BME280;60583;50.094;8.748;2022-11-04T10:57:02;99595.56;;;14.97;63.88
72558;BME280;60583;50.094;8.748;2022-11-04T11:02:14;99594.44;;;16.87;57.35
72558;BME280;60583;50.094;8.748;2022-11-04T11:04:40;99594.16;;;17.25;55.55
72558;BME280;60583;50.094;8.748;2022-11-04T11:07:07;99586.44;;;18.36;52.74
72558;BME280;60583;50.094;8.748;2022-11-04T11:12:18;99589.16;;;18.96;50.47
72558;BME280;60583;50.094;8.748;2022-11-04T11:14:49;99585.91;;;18.99;50.70
72558;BME280;60583;50.094;8.748;2022-11-04T11:17:22;99591.19;;;17.78;54.02
72558;BME280;60583;50.094;8.748;2022-11-04T11:19:56;99589.16;;;18.41;52.14
72558;BME280;60583;50.094;8.748;2022-11-04T11:22:33;99600.31;;;17.67;53.03
72558;BME280;60583;50.094;8.748;2022-11-04T11:28:02;99592.69;;;18.92;50.08
72558;BME280;60583;50.094;8.748;2022-11-04T11:30:35;99583.53;;;17.55;53.68
72558;BME280;60583;50.094;8.748;2022-11-04T11:33:30;99586.47;;;18.66;51.15
72558;BME280;60583;50.094;8.748;2022-11-04T11:36:05;99593.91;;;20.09;46.79
72558;BME280;60583;50.094;8.748;2022-11-04T11:38:37;99593.22;;;19.83;46.38
72558;BME280;60583;50.094;8.748;2022-11-04T11:41:13;99600.97;;;18.00;51.04
72558;BME280;60583;50.094;8.748;2022-11-04T11:43:49;99599.84;;;17.85;51.48
72558;BME280;60583;50.094;8.748;2022-11-04T11:46:24;99597.25;;;17.02;54.33
72558;BME280;60583;50.094;8.748;2022-11-04T11:48:53;99597.53;;;17.52;52.12
72558;BME280;60583;50.094;8.748;2022-11-04T11:51:24;99588.19;;;17.18;53.68
72558;BME280;60583;50.094;8.748;2022-11-04T11:54:06;99584.03;;;16.58;55.49
72558;BME280;60583;50.094;8.748;2022-11-04T11:56:38;99592.16;;;16.10;57.25
72558;BME280;60583;50.094;8.748;2022-11-04T11:59:26;99587.34;;;15.64;59.04
72558;BME280;60583;50.094;8.748;2022-11-04T12:02:15;99586.59;;;15.47;60.44
72558;BME280;60583;50.094;8.748;2022-11-04T12:04:45;99587.88;;;15.44;60.06
72558;BME280;60583;50.094;8.748;2022-11-04T12:07:22;99577.47;;;15.96;58.23
72558;BME280;60583;50.094;8.748;2022-11-04T12:12:51;99568.25;;;17.71;54.56
72558;BME280;60583;50.094;8.748;2022-11-04T12:15:36;99579.88;;;17.30;54.92
72558;BME280;60583;50.094;8.748;2022-11-04T12:21:18;99570.09;;;17.65;51.98
72558;BME280;60583;50.094;8.748;2022-11-04T12:23:54;99571.31;;;16.91;55.09
72558;BME280;60583;50.094;8.748;2022-11-04T12:26:37;99567.78;;;16.22;57.15
72558;BME280;60583;50.094;8.748;2022-11-04T12:32:03;99575.59;;;15.96;59.54
72558;BME280;60583;50.094;8.748;2022-11-04T12:37:10;99574.44;;;15.44;61.91
72558;BME280;60583;50.094;8.748;2022-11-04T12:51:13;99575.50;;;15.21;62.81
72558;BME280;60583;50.094;8.748;2022-11-04T12:53:52;99585.09;;;15.77;61.14
72558;BME280;60583;50.094;8.748;2022-11-04T12:56:30;99585.34;;;15.54;61.15
72558;BME280;60583;50.094;8.748;2022-11-04T13:10:37;99590.53;;;14.51;66.06
72558;BME280;60583;50.094;8.748;2022-11-04T13:13:05;99585.28;;;14.39;67.64
72558;BME280;60583;50.094;8.748;2022-11-04T13:15:39;99587.97;;;14.28;67.68
72558;BME280;60583;50.094;8.748;2022-11-04T13:18:12;99600.31;;;14.12;69.06
72558;BME280;60583;50.094;8.748;2022-11-04T13:20:46;99611.16;;;14.05;68.86
72558;BME280;60583;50.094;8.748;2022-11-04T13:23:24;99612.84;;;13.95;68.20
72558;BME280;60583;50.094;8.748;2022-11-04T13:25:53;99609.09;;;13.79;68.09
72558;BME280;60583;50.094;8.748;2022-11-04T13:28:20;99620.94;;;13.83;68.55
72558;BME280;60583;50.094;8.748;2022-11-04T13:38:19;99619.81;;;13.79;70.03
72558;BME280;60583;50.094;8.748;2022-11-04T13:43:35;99627.75;;;13.74;69.82
72558;BME280;60583;50.094;8.748;2022-11-04T13:46:03;99631.16;;;13.58;68.64
72558;BME280;60583;50.094;8.748;2022-11-04T13:48:31;99631.03;;;13.53;68.54
72558;BME280;60583;50.094;8.748;2022-11-04T13:51:00;99645.13;;;13.60;68.82
72558;BME280;60583;50.094;8.748;2022-11-04T13:53:55;99655.38;;;13.63;70.32
72558;BME280;60583;50.094;8.748;2022-11-04T14:01:29;99660.03;;;13.56;69.08
72558;BME280;60583;50.094;8.748;2022-11-04T14:04:13;99662.81;;;13.61;71.14
72558;BME280;60583;50.094;8.748;2022-11-04T14:06:49;99666.09;;;13.52;71.35
72558;BME280;60583;50.094;8.748;2022-11-04T14:14:54;99677.41;;;13.42;69.28
72558;BME280;60583;50.094;8.748;2022-11-04T14:27:56;99683.59;;;13.31;69.96
72558;BME280;60583;50.094;8.748;2022-11-04T14:30:52;99692.19;;;13.33;70.80
72558;BME280;60583;50.094;8.748;2022-11-04T14:44:14;99712.94;;;13.26;77.21
72558;BME280;60583;50.094;8.748;2022-11-04T14:46:44;99705.22;;;13.18;78.07
72558;BME280;60583;50.094;8.748;2022-11-04T14:51:54;99706.28;;;13.17;80.25
72558;BME280;60583;50.094;8.748;2022-11-04T14:54:22;99705.56;;;13.10;76.28
72558;BME280;60583;50.094;8.748;2022-11-04T14:56:50;99698.78;;;12.96;76.95
72558;BME280;60583;50.094;8.748;2022-11-04T14:59:26;99697.25;;;12.88;76.87
72558;BME280;60583;50.094;8.748;2022-11-04T15:01:52;99706.44;;;12.80;76.34
72558;BME280;60583;50.094;8.748;2022-11-04T15:04:28;99702.44;;;12.71;76.09
72558;BME280;60583;50.094;8.748;2022-11-04T15:06:58;99703.00;;;12.62;76.35
72558;BME280;60583;50.094;8.748;2022-11-04T15:09:27;99708.91;;;12.52;77.84
72558;BME280;60583;50.094;8.748;2022-11-04T15:12:13;99711.28;;;12.60;77.21
72558;BME280;60583;50.094;8.748;2022-11-04T15:14:57;99715.66;;;12.55;77.34
72558;BME280;60583;50.094;8.748;2022-11-04T15:17:27;99710.44;;;12.48;76.41
72558;BME280;60583;50.094;8.748;2022-11-04T15:19:55;99720.63;;;12.51;77.00
72558;BME280;60583;50.094;8.748;2022-11-04T15:22:22;99725.19;;;12.51;77.45
72558;BME280;60583;50.094;8.748;2022-11-04T15:24:48;99727.38;;;12.42;77.68
72558;BME280;60583;50.094;8.748;2022-11-04T15:27:18;99728.41;;;12.41;79.25
72558;BME280;60583;50.094;8.748;2022-11-04T15:30:02;99728.59;;;12.28;79.88
72558;BME280;60583;50.094;8.748;2022-11-04T15:32:28;99728.59;;;12.28;79.63
72558;BME280;60583;50.094;8.748;2022-11-04T15:34:54;99721.75;;;12.14;81.40
72558;BME280;60583;50.094;8.748;2022-11-04T15:37:21;99733.72;;;12.11;82.59
72558;BME280;60583;50.094;8.748;2022-11-04T15:39:50;99734.81;;;12.22;83.46
72558;BME280;60583;50.094;8.748;2022-11-04T15:42:21;99735.84;;;12.21;83.01
72558;BME280;60583;50.094;8.748;2022-11-04T15:45:25;99748.34;;;12.27;83.98
72558;BME280;60583;50.094;8.748;2022-11-04T15:51:07;99760.97;;;12.20;84.58
72558;BME280;60583;50.094;8.748;2022-11-04T15:53:49;99764.09;;;12.17;85.73
72558;BME280;60583;50.094;8.748;2022-11-04T15:56:17;99766.31;;;12.02;86.51
72558;BME280;60583;50.094;8.748;2022-11-04T15:58:43;99763.06;;;12.00;85.96
72558;BME280;60583;50.094;8.748;2022-11-04T16:01:13;99762.31;;;11.93;85.64